CTV6050 WARR-WADD
Flight info
| Callsign | CTV6050 |
|---|---|
| Flight time | 0h 37m |
| Altitude | 23000 |
| Route | MOVMO |
| Aircraft | A20N/M-SDE2E3FGHIRWXY/LB1 |
Departure
| Time | 2026-05-07 06:42 |
|---|---|
| Airport | Juanda International Airport (WARR) |
Arrival
| Time | 2026-05-07 07:19 |
|---|---|
| Airport | Denpasar I Gusti Ngurah Rai International Airport (WADD) |
| Time | Latitude | Longitude | Altitude | Speed | Heading |
|---|---|---|---|---|---|
| 2026-05-07 06:23 | -7.37550 | 112.79240 | 8 ft | 0 kts | 9° |
| 2026-05-07 06:34 | -7.37560 | 112.79238 | 8 ft | 2 kts | 17° |
| 2026-05-07 06:34 | -7.37574 | 112.79234 | 8 ft | 2 kts | 14° |
| 2026-05-07 06:34 | -7.37589 | 112.79230 | 8 ft | 2 kts | 15° |
| 2026-05-07 06:34 | -7.37603 | 112.79226 | 8 ft | 2 kts | 15° |
| 2026-05-07 06:35 | -7.37618 | 112.79222 | 8 ft | 2 kts | 15° |
| 2026-05-07 06:35 | -7.37632 | 112.79218 | 8 ft | 1 kts | 15° |
| 2026-05-07 06:35 | -7.37637 | 112.79216 | 8 ft | 0 kts | 350° |
| 2026-05-07 06:35 | -7.37643 | 112.79219 | 8 ft | 0 kts | 293° |
| 2026-05-07 06:36 | -7.37644 | 112.79224 | 8 ft | 1 kts | 272° |
| 2026-05-07 06:36 | -7.37644 | 112.79227 | 8 ft | 0 kts | 278° |
| 2026-05-07 06:37 | -7.37634 | 112.79179 | 8 ft | 17 kts | 282° |
| 2026-05-07 06:37 | -7.37728 | 112.79084 | 8 ft | 28 kts | 186° |
| 2026-05-07 06:38 | -7.37856 | 112.78987 | 8 ft | 24 kts | 276° |
| 2026-05-07 06:38 | -7.37831 | 112.78825 | 11 ft | 22 kts | 277° |
| 2026-05-07 06:38 | -7.37805 | 112.78672 | 11 ft | 21 kts | 280° |
| 2026-05-07 06:38 | -7.37782 | 112.78522 | 11 ft | 21 kts | 279° |
| 2026-05-07 06:39 | -7.37758 | 112.78378 | 11 ft | 21 kts | 279° |
| 2026-05-07 06:39 | -7.37733 | 112.78227 | 11 ft | 22 kts | 279° |
| 2026-05-07 06:39 | -7.37707 | 112.78072 | 11 ft | 23 kts | 281° |
| 2026-05-07 06:39 | -7.37679 | 112.77908 | 11 ft | 24 kts | 278° |
| 2026-05-07 06:40 | -7.37654 | 112.77740 | 11 ft | 24 kts | 279° |
| 2026-05-07 06:40 | -7.37627 | 112.77566 | 11 ft | 25 kts | 278° |
| 2026-05-07 06:40 | -7.37635 | 112.77397 | 11 ft | 24 kts | 217° |
| 2026-05-07 06:40 | -7.37773 | 112.77412 | 11 ft | 15 kts | 114° |
| 2026-05-07 06:41 | -7.37778 | 112.77428 | 11 ft | 0 kts | 104° |
| 2026-05-07 06:41 | -7.37782 | 112.77442 | 11 ft | 8 kts | 104° |
| 2026-05-07 06:41 | -7.37834 | 112.77750 | 11 ft | 78 kts | 99° |
| 2026-05-07 06:41 | -7.37956 | 112.78503 | 12 ft | 135 kts | 98° |
| 2026-05-07 06:42 | -7.38097 | 112.79511 | 330 ft | 148 kts | 97° |
| 2026-05-07 06:42 | -7.38242 | 112.80540 | 837 ft | 152 kts | 98° |
| 2026-05-07 06:42 | -7.38420 | 112.81585 | 1400 ft | 153 kts | 99° |
| 2026-05-07 06:42 | -7.38600 | 112.82636 | 1883 ft | 156 kts | 99° |
| 2026-05-07 06:43 | -7.38789 | 112.83765 | 2125 ft | 174 kts | 98° |
| 2026-05-07 06:43 | -7.38995 | 112.85022 | 2455 ft | 190 kts | 99° |
| 2026-05-07 06:43 | -7.39221 | 112.86385 | 2810 ft | 207 kts | 98° |
| 2026-05-07 06:43 | -7.39467 | 112.87889 | 3188 ft | 225 kts | 98° |
| 2026-05-07 06:44 | -7.39728 | 112.89498 | 3577 ft | 243 kts | 98° |
| 2026-05-07 06:44 | -7.40010 | 112.91238 | 4004 ft | 260 kts | 98° |
| 2026-05-07 06:44 | -7.40347 | 112.93043 | 4683 ft | 266 kts | 101° |
| 2026-05-07 06:44 | -7.40738 | 112.94861 | 5453 ft | 268 kts | 101° |
| 2026-05-07 06:45 | -7.41132 | 112.96684 | 6218 ft | 272 kts | 101° |
| 2026-05-07 06:45 | -7.41536 | 112.98541 | 6996 ft | 276 kts | 101° |
| 2026-05-07 06:45 | -7.41946 | 113.00438 | 7785 ft | 280 kts | 101° |
| 2026-05-07 06:45 | -7.42364 | 113.02374 | 8559 ft | 284 kts | 101° |
| 2026-05-07 06:46 | -7.42785 | 113.04318 | 9302 ft | 288 kts | 101° |
| 2026-05-07 06:46 | -7.43212 | 113.06287 | 10032 ft | 292 kts | 101° |
| 2026-05-07 06:46 | -7.43650 | 113.08315 | 10617 ft | 302 kts | 101° |
| 2026-05-07 06:46 | -7.44104 | 113.10413 | 10953 ft | 319 kts | 101° |
| 2026-05-07 06:47 | -7.44591 | 113.12666 | 11252 ft | 337 kts | 101° |
| 2026-05-07 06:47 | -7.45099 | 113.15015 | 11617 ft | 351 kts | 101° |
| 2026-05-07 06:47 | -7.45624 | 113.17442 | 12252 ft | 356 kts | 102° |
| 2026-05-07 06:47 | -7.46148 | 113.19862 | 12919 ft | 359 kts | 102° |
| 2026-05-07 06:48 | -7.46682 | 113.22329 | 13511 ft | 362 kts | 102° |
| 2026-05-07 06:48 | -7.47217 | 113.24795 | 14095 ft | 366 kts | 102° |
| 2026-05-07 06:48 | -7.47764 | 113.27317 | 14684 ft | 370 kts | 102° |
| 2026-05-07 06:48 | -7.48316 | 113.29867 | 15245 ft | 373 kts | 102° |
| 2026-05-07 06:49 | -7.48867 | 113.32410 | 15794 ft | 377 kts | 102° |
| 2026-05-07 06:49 | -7.49428 | 113.35006 | 16328 ft | 380 kts | 102° |
| 2026-05-07 06:49 | -7.49988 | 113.37596 | 16867 ft | 383 kts | 102° |
| 2026-05-07 06:49 | -7.50600 | 113.40208 | 17365 ft | 387 kts | 107° |
| 2026-05-07 06:50 | -7.51705 | 113.42697 | 17843 ft | 391 kts | 121° |
| 2026-05-07 06:50 | -7.53375 | 113.44885 | 18388 ft | 394 kts | 134° |
| 2026-05-07 06:50 | -7.55369 | 113.46767 | 18908 ft | 396 kts | 137° |
| 2026-05-07 06:50 | -7.57429 | 113.48622 | 19385 ft | 399 kts | 138° |
| 2026-05-07 06:51 | -7.59494 | 113.50477 | 19892 ft | 401 kts | 138° |
| 2026-05-07 06:51 | -7.61594 | 113.52374 | 20405 ft | 403 kts | 138° |
| 2026-05-07 06:51 | -7.63687 | 113.54275 | 20879 ft | 405 kts | 138° |
| 2026-05-07 06:51 | -7.65761 | 113.56168 | 21302 ft | 409 kts | 138° |
| 2026-05-07 06:52 | -7.67893 | 113.58116 | 21724 ft | 412 kts | 138° |
| 2026-05-07 06:52 | -7.70021 | 113.60064 | 22146 ft | 416 kts | 138° |
| 2026-05-07 06:52 | -7.72171 | 113.62034 | 22585 ft | 418 kts | 138° |
| 2026-05-07 06:52 | -7.74345 | 113.64027 | 22829 ft | 420 kts | 138° |
| 2026-05-07 06:53 | -7.76491 | 113.65997 | 22859 ft | 419 kts | 138° |
| 2026-05-07 06:53 | -7.78637 | 113.67976 | 22878 ft | 418 kts | 138° |
| 2026-05-07 06:53 | -7.80814 | 113.69983 | 22888 ft | 418 kts | 138° |
| 2026-05-07 06:53 | -7.82944 | 113.71942 | 22901 ft | 418 kts | 138° |
| 2026-05-07 06:54 | -7.85100 | 113.73925 | 22915 ft | 418 kts | 138° |
| 2026-05-07 06:54 | -7.87257 | 113.75904 | 22925 ft | 417 kts | 138° |
| 2026-05-07 06:54 | -7.89386 | 113.77859 | 22936 ft | 417 kts | 138° |
| 2026-05-07 06:54 | -7.91532 | 113.79824 | 22951 ft | 417 kts | 138° |
| 2026-05-07 06:55 | -7.93688 | 113.81801 | 22969 ft | 417 kts | 138° |
| 2026-05-07 06:55 | -7.95831 | 113.83768 | 22978 ft | 417 kts | 138° |
| 2026-05-07 06:55 | -7.98003 | 113.85762 | 22990 ft | 417 kts | 138° |
| 2026-05-07 06:55 | -8.00191 | 113.87676 | 22993 ft | 416 kts | 144° |
| 2026-05-07 06:56 | -8.02690 | 113.89133 | 23004 ft | 414 kts | 157° |
| 2026-05-07 06:56 | -8.05444 | 113.90001 | 23009 ft | 413 kts | 170° |
| 2026-05-07 06:56 | -8.08295 | 113.90416 | 23009 ft | 414 kts | 174° |
| 2026-05-07 06:56 | -8.11148 | 113.90753 | 23007 ft | 414 kts | 174° |
| 2026-05-07 06:57 | -8.14028 | 113.91085 | 23001 ft | 414 kts | 174° |
| 2026-05-07 06:57 | -8.16896 | 113.91422 | 22991 ft | 414 kts | 174° |
| 2026-05-07 06:57 | -8.19740 | 113.91763 | 22979 ft | 414 kts | 174° |
| 2026-05-07 06:57 | -8.22640 | 113.92115 | 22971 ft | 414 kts | 174° |
| 2026-05-07 06:58 | -8.25501 | 113.92466 | 22963 ft | 414 kts | 174° |
| 2026-05-07 06:58 | -8.28374 | 113.92821 | 22953 ft | 414 kts | 174° |
| 2026-05-07 06:58 | -8.31241 | 113.93175 | 22944 ft | 414 kts | 174° |
| 2026-05-07 06:58 | -8.34090 | 113.93527 | 22941 ft | 415 kts | 174° |
| 2026-05-07 06:59 | -8.36968 | 113.93883 | 22929 ft | 415 kts | 174° |
| 2026-05-07 06:59 | -8.39863 | 113.94242 | 22921 ft | 415 kts | 173° |
| 2026-05-07 06:59 | -8.42736 | 113.94598 | 22775 ft | 417 kts | 174° |
| 2026-05-07 06:59 | -8.45632 | 113.94958 | 22112 ft | 421 kts | 174° |
| 2026-05-07 07:00 | -8.48551 | 113.95320 | 21468 ft | 420 kts | 174° |
| 2026-05-07 07:00 | -8.51429 | 113.95676 | 20883 ft | 417 kts | 174° |
| 2026-05-07 07:00 | -8.54318 | 113.96035 | 20315 ft | 414 kts | 174° |
| 2026-05-07 07:00 | -8.57165 | 113.96513 | 19731 ft | 412 kts | 163° |
| 2026-05-07 07:01 | -8.59657 | 113.97813 | 19223 ft | 409 kts | 142° |
| 2026-05-07 07:01 | -8.61577 | 113.99940 | 18680 ft | 405 kts | 122° |
| 2026-05-07 07:01 | -8.62695 | 114.02499 | 18170 ft | 401 kts | 108° |
| 2026-05-07 07:01 | -8.63544 | 114.05176 | 17663 ft | 398 kts | 107° |
| 2026-05-07 07:02 | -8.64384 | 114.07832 | 17153 ft | 394 kts | 108° |
| 2026-05-07 07:02 | -8.65229 | 114.10429 | 16635 ft | 391 kts | 108° |
| 2026-05-07 07:02 | -8.66096 | 114.13040 | 16173 ft | 387 kts | 108° |
| 2026-05-07 07:02 | -8.66950 | 114.15597 | 15708 ft | 383 kts | 108° |
| 2026-05-07 07:03 | -8.67798 | 114.18134 | 15239 ft | 379 kts | 108° |
| 2026-05-07 07:03 | -8.68628 | 114.20613 | 14789 ft | 374 kts | 108° |
| 2026-05-07 07:03 | -8.69459 | 114.23098 | 14326 ft | 371 kts | 108° |
| 2026-05-07 07:03 | -8.70275 | 114.25536 | 13865 ft | 367 kts | 108° |
| 2026-05-07 07:04 | -8.71091 | 114.27974 | 13403 ft | 364 kts | 108° |
| 2026-05-07 07:04 | -8.71901 | 114.30399 | 12936 ft | 360 kts | 108° |
| 2026-05-07 07:04 | -8.72697 | 114.32782 | 12472 ft | 357 kts | 108° |
| 2026-05-07 07:04 | -8.73483 | 114.35129 | 12043 ft | 352 kts | 108° |
| 2026-05-07 07:05 | -8.74255 | 114.37438 | 11624 ft | 348 kts | 108° |
| 2026-05-07 07:05 | -8.75019 | 114.39726 | 11203 ft | 344 kts | 108° |
| 2026-05-07 07:05 | -8.75782 | 114.42012 | 10759 ft | 341 kts | 108° |
| 2026-05-07 07:05 | -8.76539 | 114.44274 | 10312 ft | 337 kts | 108° |
| 2026-05-07 07:06 | -8.77280 | 114.46487 | 10136 ft | 324 kts | 107° |
| 2026-05-07 07:06 | -8.77981 | 114.48586 | 10036 ft | 310 kts | 107° |
| 2026-05-07 07:06 | -8.78662 | 114.50624 | 9945 ft | 297 kts | 108° |
| 2026-05-07 07:06 | -8.79303 | 114.52544 | 9855 ft | 284 kts | 107° |
| 2026-05-07 07:07 | -8.79937 | 114.54444 | 9506 ft | 283 kts | 107° |
| 2026-05-07 07:07 | -8.80559 | 114.56308 | 9172 ft | 280 kts | 108° |
| 2026-05-07 07:07 | -8.81180 | 114.58168 | 8843 ft | 277 kts | 108° |
| 2026-05-07 07:07 | -8.81794 | 114.60008 | 8519 ft | 274 kts | 108° |
| 2026-05-07 07:08 | -8.82397 | 114.61816 | 8206 ft | 271 kts | 108° |
| 2026-05-07 07:08 | -8.82996 | 114.63610 | 7915 ft | 267 kts | 107° |
| 2026-05-07 07:08 | -8.83584 | 114.65371 | 7635 ft | 263 kts | 107° |
| 2026-05-07 07:08 | -8.84157 | 114.67124 | 7333 ft | 260 kts | 104° |
| 2026-05-07 07:09 | -8.84333 | 114.68895 | 7013 ft | 256 kts | 83° |
| 2026-05-07 07:09 | -8.83867 | 114.70617 | 6724 ft | 252 kts | 69° |
| 2026-05-07 07:09 | -8.83194 | 114.72238 | 6437 ft | 249 kts | 68° |
| 2026-05-07 07:09 | -8.82512 | 114.73852 | 6140 ft | 247 kts | 68° |
| 2026-05-07 07:10 | -8.81852 | 114.75430 | 5855 ft | 244 kts | 68° |
| 2026-05-07 07:10 | -8.81203 | 114.76996 | 5566 ft | 242 kts | 69° |
| 2026-05-07 07:10 | -8.80560 | 114.78561 | 5283 ft | 239 kts | 69° |
| 2026-05-07 07:10 | -8.79920 | 114.80122 | 4994 ft | 237 kts | 69° |
| 2026-05-07 07:11 | -8.79298 | 114.81641 | 4714 ft | 235 kts | 69° |
| 2026-05-07 07:11 | -8.78677 | 114.83159 | 4436 ft | 232 kts | 69° |
| 2026-05-07 07:11 | -8.78059 | 114.84669 | 4154 ft | 230 kts | 69° |
| 2026-05-07 07:11 | -8.77448 | 114.86162 | 3881 ft | 228 kts | 69° |
| 2026-05-07 07:12 | -8.76844 | 114.87635 | 3614 ft | 226 kts | 69° |
| 2026-05-07 07:12 | -8.76246 | 114.89094 | 3348 ft | 223 kts | 69° |
| 2026-05-07 07:12 | -8.75714 | 114.90559 | 3086 ft | 220 kts | 77° |
| 2026-05-07 07:12 | -8.75461 | 114.92067 | 2843 ft | 216 kts | 88° |
| 2026-05-07 07:13 | -8.75437 | 114.93548 | 2796 ft | 203 kts | 91° |
| 2026-05-07 07:13 | -8.75452 | 114.94929 | 2743 ft | 192 kts | 91° |
| 2026-05-07 07:13 | -8.75468 | 114.96239 | 2770 ft | 182 kts | 91° |
| 2026-05-07 07:13 | -8.75481 | 114.97470 | 2659 ft | 163 kts | 91° |
| 2026-05-07 07:14 | -8.75491 | 114.98537 | 2571 ft | 144 kts | 91° |
| 2026-05-07 07:14 | -8.75488 | 114.99541 | 2575 ft | 143 kts | 89° |
| 2026-05-07 07:14 | -8.75450 | 115.00558 | 2523 ft | 143 kts | 88° |
| 2026-05-07 07:14 | -8.75413 | 115.01557 | 2436 ft | 143 kts | 88° |
| 2026-05-07 07:15 | -8.75375 | 115.02525 | 2339 ft | 133 kts | 89° |
| 2026-05-07 07:15 | -8.75340 | 115.03447 | 2249 ft | 130 kts | 88° |
| 2026-05-07 07:15 | -8.75305 | 115.04366 | 2081 ft | 130 kts | 89° |
| 2026-05-07 07:15 | -8.75270 | 115.05275 | 1881 ft | 129 kts | 89° |
| 2026-05-07 07:16 | -8.75235 | 115.06175 | 1708 ft | 128 kts | 89° |
| 2026-05-07 07:16 | -8.75199 | 115.07082 | 1541 ft | 128 kts | 89° |
| 2026-05-07 07:16 | -8.75166 | 115.07981 | 1375 ft | 128 kts | 89° |
| 2026-05-07 07:16 | -8.75132 | 115.08879 | 1207 ft | 128 kts | 88° |
| 2026-05-07 07:17 | -8.75097 | 115.09779 | 1045 ft | 127 kts | 88° |
| 2026-05-07 07:17 | -8.75063 | 115.10669 | 883 ft | 127 kts | 89° |
| 2026-05-07 07:17 | -8.75029 | 115.11557 | 720 ft | 127 kts | 89° |
| 2026-05-07 07:17 | -8.74995 | 115.12447 | 558 ft | 127 kts | 89° |
| 2026-05-07 07:18 | -8.74960 | 115.13334 | 399 ft | 126 kts | 89° |
| 2026-05-07 07:18 | -8.74925 | 115.14223 | 237 ft | 126 kts | 89° |
| 2026-05-07 07:18 | -8.74908 | 115.15106 | 66 ft | 125 kts | 90° |
| 2026-05-07 07:18 | -8.74878 | 115.15942 | 15 ft | 101 kts | 88° |
| 2026-05-07 07:19 | -8.74855 | 115.16477 | 18 ft | 52 kts | 87° |
| 2026-05-07 07:19 | -8.74821 | 115.16743 | 18 ft | 33 kts | 64° |
| 2026-05-07 07:19 | -8.74766 | 115.16836 | 19 ft | 0 kts | 44° |
| 2026-05-07 07:19 | -8.74765 | 115.16836 | 19 ft | 0 kts | 44° |
| 2026-05-07 07:20 | -8.74740 | 115.16855 | 20 ft | 8 kts | 20° |
| 2026-05-07 07:20 | -8.74679 | 115.16900 | 20 ft | 14 kts | 69° |
| 2026-05-07 07:20 | -8.74662 | 115.16998 | 18 ft | 11 kts | 48° |
| 2026-05-07 07:20 | -8.74613 | 115.17000 | 19 ft | 6 kts | 5° |
| 2026-05-07 07:21 | -8.74571 | 115.16999 | 20 ft | 5 kts | 358° |
| 2026-05-07 07:21 | -8.74532 | 115.16997 | 21 ft | 5 kts | 358° |
| 2026-05-07 07:21 | -8.74528 | 115.16997 | 21 ft | 0 kts | 358° |